Time;durP1;ratioP1;P1;durP2;ratioP2;P2;SDS_P1;SDS_P2;PMS_P1;PMS_P2;Temp;Humidity;BMP_temperature;BMP_pressure;BME280_temperature;BME280_humidity;BME280_pressure;Samples;Min_cycle;Max_cycle;Signal;HPM_P1;HPM_P2
2022/08/31 00:04:08;;;;;;;;;7.00;6.00;;;;;23.40;43.86;101038.16;5099019;27;45419;-62
2022/08/31 00:07:06;;;;;;;;;7.00;7.00;;;;;23.33;43.55;101037.84;5099390;27;45539;-65
2022/08/31 00:17:17;;;;;;;;;8.25;8.25;;;;;23.27;43.74;101031.13;5097721;27;45536;-65
2022/08/31 00:19:42;;;;;;;;;7.00;7.00;;;;;23.26;44.30;101032.09;5097953;27;45582;-65
2022/08/31 00:32:14;;;;;;;;;7.00;7.00;;;;;23.18;43.98;101023.81;5035954;27;45544;-63
2022/08/31 00:34:52;;;;;;;;;7.25;6.25;;;;;23.15;43.92;101027.59;5080253;27;45471;-63
2022/08/31 00:40:24;;;;;;;;;6.00;6.00;;;;;23.10;43.75;101027.13;5085925;27;45479;-64
2022/08/31 00:42:50;;;;;;;;;6.67;6.00;;;;;23.07;44.11;101032.75;5082124;27;45528;-63
2022/08/31 00:48:18;;;;;;;;;5.75;5.75;;;;;23.02;44.32;101026.06;5097841;27;45548;-62
2022/08/31 00:51:06;;;;;;;;;7.00;7.00;;;;;22.99;43.95;101021.78;5078977;27;45586;-65
2022/08/31 00:53:40;;;;;;;;;4.75;4.75;;;;;22.98;43.82;101027.28;5025918;28;45532;-64
2022/08/31 01:03:01;;;;;;;;;5.75;5.75;;;;;22.93;44.00;101027.63;5097648;27;45464;-63
2022/08/31 01:05:29;;;;;;;;;5.50;5.50;;;;;22.91;43.98;101026.88;5096918;27;45543;-63
2022/08/31 01:08:41;;;;;;;;;5.75;5.75;;;;;22.89;43.99;101028.84;5079594;27;45411;-64
2022/08/31 01:11:36;;;;;;;;;7.50;6.75;;;;;22.82;44.26;101027.63;5079194;27;45501;-64
2022/08/31 01:14:31;;;;;;;;;6.25;6.25;;;;;22.78;44.07;101031.53;5085507;27;45573;-62
2022/08/31 01:17:09;;;;;;;;;6.25;5.25;;;;;22.78;44.34;101039.56;5042888;27;45600;-62
2022/08/31 01:20:20;;;;;;;;;6.75;5.75;;;;;22.77;44.45;101037.88;5061072;27;45496;-64
2022/08/31 01:26:18;;;;;;;;;5.25;5.25;;;;;22.69;44.30;101038.47;5097273;27;45490;-63
2022/08/31 01:29:00;;;;;;;;;5.75;5.75;;;;;22.62;44.33;101032.78;5045942;27;45617;-64
2022/08/31 01:31:30;;;;;;;;;7.00;5.75;;;;;22.62;44.40;101039.94;5026553;27;45607;-62
2022/08/31 01:34:21;;;;;;;;;6.50;5.75;;;;;22.63;44.63;101041.66;5097931;27;46301;-64
2022/08/31 01:37:12;;;;;;;;;5.25;5.00;;;;;22.59;44.42;101048.22;5061680;27;45652;-64
2022/08/31 01:40:14;;;;;;;;;5.50;5.50;;;;;22.59;44.48;101037.50;5082677;27;45506;-65
2022/08/31 01:43:04;;;;;;;;;6.00;5.50;;;;;22.57;44.61;101036.75;5101418;27;45541;-64
2022/08/31 01:46:16;;;;;;;;;7.00;6.00;;;;;22.53;44.76;101046.88;5099800;27;45902;-62
2022/08/31 01:49:02;;;;;;;;;5.00;5.00;;;;;22.53;44.73;101041.53;5078480;27;45400;-62
2022/08/31 01:51:33;;;;;;;;;5.00;4.50;;;;;22.49;44.70;101048.09;5017560;27;45563;-62
2022/08/31 01:54:26;;;;;;;;;4.25;4.25;;;;;22.48;44.56;101041.03;5082281;27;45447;-62
2022/08/31 01:56:53;;;;;;;;;4.00;4.00;;;;;22.45;44.95;101046.63;5092256;27;46650;-63
2022/08/31 01:59:31;;;;;;;;;9.00;6.00;;;;;22.44;44.99;101050.28;5100741;27;45393;-62
2022/08/31 02:02:31;;;;;;;;;6.00;4.00;;;;;22.40;44.80;101051.50;5064679;27;45611;-62
2022/08/31 02:05:10;;;;;;;;;3.75;3.75;;;;;22.40;44.91;101054.16;5064971;27;45561;-63
2022/08/31 02:08:16;;;;;;;;;4.25;4.25;;;;;22.38;45.06;101045.38;5069939;27;45528;-62
2022/08/31 02:11:07;;;;;;;;;4.75;4.75;;;;;22.35;45.09;101053.66;5047502;27;45472;-64
2022/08/31 02:14:04;;;;;;;;;6.00;4.50;;;;;22.34;45.22;101049.31;4997689;28;45742;-65
2022/08/31 02:16:30;;;;;;;;;7.25;6.00;;;;;22.25;45.13;101045.50;4997536;28;45635;-65
2022/08/31 02:18:55;;;;;;;;;4.75;4.75;;;;;22.22;45.15;101049.28;4997163;28;45615;-65
2022/08/31 02:21:46;;;;;;;;;5.50;5.50;;;;;22.20;45.59;101051.22;4997576;28;45536;-63
2022/08/31 02:43:33;;;;;;;;;6.67;6.67;;;;;22.02;45.69;101065.97;4996913;28;45837;-63
2022/08/31 02:46:47;;;;;;;;;7.00;7.00;;;;;22.00;45.71;101065.25;4964885;28;45540;-64
2022/08/31 02:52:34;;;;;;;;;6.75;6.00;;;;;21.96;45.77;101074.50;5081859;27;45589;-63
2022/08/31 02:55:08;;;;;;;;;6.00;6.00;;;;;21.96;45.88;101077.16;5047324;27;45505;-64
2022/08/31 02:57:40;;;;;;;;;3.75;3.75;;;;;21.97;45.79;101074.34;5081616;27;45524;-64
2022/08/31 03:00:20;;;;;;;;;6.00;6.00;;;;;21.98;45.89;101070.72;5099915;27;45465;-65
2022/08/31 03:03:13;;;;;;;;;7.00;5.67;;;;;21.99;45.67;101071.59;5099519;27;45512;-64
2022/08/31 03:06:12;;;;;;;;;5.00;5.00;;;;;21.95;45.54;101070.09;5030414;27;46366;-65
2022/08/31 03:09:04;;;;;;;;;4.33;4.33;;;;;21.95;45.56;101070.09;5053708;27;45436;-64
2022/08/31 03:15:00;;;;;;;;;5.00;5.00;;;;;21.91;45.70;101069.47;5099531;27;45562;-64
2022/08/31 03:17:37;;;;;;;;;5.75;5.75;;;;;21.88;45.66;101075.06;5046387;27;45592;-66
2022/08/31 03:20:06;;;;;;;;;6.00;6.00;;;;;21.87;46.00;101078.72;5080794;27;45580;-65
2022/08/31 03:22:39;;;;;;;;;6.00;6.00;;;;;21.89;46.18;101076.75;5081164;27;45553;-63
2022/08/31 03:28:23;;;;;;;;;7.00;7.00;;;;;21.87;45.75;101083.19;5099301;27;45476;-64
2022/08/31 03:31:13;;;;;;;;;6.00;6.00;;;;;21.86;45.59;101084.19;4997889;27;45590;-66
2022/08/31 03:34:04;;;;;;;;;5.67;5.67;;;;;21.78;45.90;101082.06;5033857;27;45570;-65
2022/08/31 03:36:36;;;;;;;;;5.67;5.67;;;;;21.78;45.68;101084.75;5098883;27;45470;-63
2022/08/31 03:39:02;;;;;;;;;8.00;8.00;;;;;21.78;46.14;101079.41;5099081;27;46103;-63
2022/08/31 03:44:20;;;;;;;;;6.00;6.00;;;;;21.72;45.42;101077.19;5098717;27;45448;-65
2022/08/31 03:47:15;;;;;;;;;7.33;7.00;;;;;21.71;45.80;101087.06;5080368;27;45500;-63
2022/08/31 03:50:14;;;;;;;;;9.00;7.67;;;;;21.69;46.02;101088.13;5045792;27;45562;-66
2022/08/31 03:52:52;;;;;;;;;6.33;6.33;;;;;21.68;45.90;101092.63;5080772;27;45473;-65
2022/08/31 03:55:27;;;;;;;;;7.67;6.00;;;;;21.65;46.04;101097.34;5087987;27;45550;-65
2022/08/31 03:58:05;;;;;;;;;8.00;7.00;;;;;21.64;46.23;101093.81;5080087;27;45447;-65
2022/08/31 04:00:39;;;;;;;;;8.00;7.00;;;;;21.62;46.21;101093.91;5045890;27;46151;-64
2022/08/31 04:06:28;;;;;;;;;8.00;8.00;;;;;21.64;46.06;101091.16;5073449;27;44859;-64
2022/08/31 04:12:43;;;;;;;;;4.67;4.67;;;;;21.59;46.06;101091.47;5097664;27;45646;-65
2022/08/31 04:15:23;;;;;;;;;6.00;6.00;;;;;21.58;45.95;101086.25;5098622;27;45506;-66
2022/08/31 04:18:25;;;;;;;;;5.33;4.33;;;;;21.56;46.05;101089.03;5077313;27;45404;-65
2022/08/31 04:21:30;;;;;;;;;5.50;5.50;;;;;21.55;45.95;101091.84;5079967;27;45664;-64
2022/08/31 04:23:56;;;;;;;;;8.75;6.00;;;;;21.52;46.14;101092.91;5009899;27;45438;-66
2022/08/31 04:27:05;;;;;;;;;6.67;6.00;;;;;21.52;46.18;101092.03;5098598;27;45423;-63
2022/08/31 04:30:09;;;;;;;;;5.67;5.00;;;;;21.47;46.12;101095.06;5033578;28;45488;-65
2022/08/31 04:33:00;;;;;;;;;5.67;5.67;;;;;21.46;46.40;101092.50;5093628;27;45614;-63
2022/08/31 04:35:42;;;;;;;;;6.00;6.00;;;;;21.44;46.37;101097.97;5062149;27;45546;-63
2022/08/31 04:38:27;;;;;;;;;6.00;5.67;;;;;21.45;46.14;101096.16;5051946;27;45447;-64
2022/08/31 04:40:53;;;;;;;;;7.00;7.00;;;;;21.44;46.11;101095.31;5097663;27;45559;-63
2022/08/31 04:43:45;;;;;;;;;5.33;5.00;;;;;21.43;46.37;101092.72;5079731;27;45498;-66
2022/08/31 04:46:32;;;;;;;;;8.00;8.00;;;;;21.42;46.31;101096.38;5061938;27;45592;-66
2022/08/31 04:48:57;;;;;;;;;7.00;7.00;;;;;21.36;46.53;101098.50;5097499;27;45522;-66
2022/08/31 04:54:28;;;;;;;;;7.33;6.33;;;;;21.35;46.75;101091.41;5054103;27;45696;-65
2022/08/31 04:56:54;;;;;;;;;5.00;5.00;;;;;21.32;46.39;101093.47;5079551;27;45533;-66
2022/08/31 04:59:26;;;;;;;;;5.67;5.67;;;;;21.31;46.08;101081.91;5098018;27;45484;-63
2022/08/31 05:02:20;;;;;;;;;5.67;5.67;;;;;21.29;46.46;101094.53;5086329;27;45494;-63
2022/08/31 05:15:28;;;;;;;;;6.67;6.67;;;;;21.23;46.75;101105.69;5097179;27;45320;-65
2022/08/31 05:21:33;;;;;;;;;7.00;7.00;;;;;21.18;46.98;101100.66;5080904;28;45533;-65
2022/08/31 05:24:17;;;;;;;;;8.67;6.67;;;;;21.22;46.80;101109.31;5017427;28;45459;-64
2022/08/31 05:27:10;;;;;;;;;6.67;6.67;;;;;21.23;46.75;101111.06;5009979;28;45465;-63
2022/08/31 05:41:57;;;;;;;;;7.33;7.00;;;;;21.23;46.86;101111.06;5037891;28;45686;-66
2022/08/31 05:44:38;;;;;;;;;6.00;6.00;;;;;21.23;46.64;101111.06;5037243;28;45447;-65
2022/08/31 05:47:49;;;;;;;;;5.33;5.00;;;;;21.23;46.62;101110.19;5020630;28;45602;-65
2022/08/31 05:56:24;;;;;;;;;9.00;9.00;;;;;21.21;47.02;101102.28;5062302;28;45554;-66
2022/08/31 06:02:30;;;;;;;;;6.67;6.67;;;;;21.21;46.87;101102.28;5080542;28;45438;-64
2022/08/31 06:05:18;;;;;;;;;7.33;6.00;;;;;21.23;46.94;101113.72;5018102;28;45588;-63
2022/08/31 06:08:29;;;;;;;;;8.00;8.00;;;;;21.25;47.10;101114.47;5079376;28;45489;-66
2022/08/31 06:21:56;;;;;;;;;8.33;7.33;;;;;21.22;46.88;101117.34;5020714;28;45710;-66
2022/08/31 06:24:45;;;;;;;;;7.67;7.67;;;;;21.24;46.95;101117.25;5036034;28;45582;-65
2022/08/31 06:34:05;;;;;;;;;9.00;9.00;;;;;21.24;47.38;101120.78;5036208;28;45719;-63
2022/08/31 06:36:47;;;;;;;;;9.67;9.67;;;;;21.22;47.04;101116.50;5019847;28;45597;-65
2022/08/31 06:39:24;;;;;;;;;8.00;7.00;;;;;21.15;47.01;101116.09;5003899;28;46117;-65
2022/08/31 06:42:02;;;;;;;;;5.33;5.00;;;;;21.18;47.75;101114.06;5015577;28;46404;-65
2022/08/31 06:48:10;;;;;;;;;9.00;8.00;;;;;21.28;47.15;101124.06;5047691;28;45611;-66
2022/08/31 06:53:57;;;;;;;;;9.67;9.67;;;;;21.30;47.21;101127.50;5063818;28;45498;-65
2022/08/31 07:12:55;;;;;;;;;9.67;9.67;;;;;21.45;47.41;101129.13;5061001;28;45464;-66
2022/08/31 07:16:24;;;;;;;;;8.00;8.00;;;;;21.48;47.06;101131.56;5059069;28;45488;-65
2022/08/31 07:19:02;;;;;;;;;9.33;8.67;;;;;21.51;47.11;101133.16;5042138;28;45660;-63
2022/08/31 07:22:15;;;;;;;;;9.00;9.00;;;;;21.49;47.01;101129.72;5024155;28;45548;-64
2022/08/31 07:24:40;;;;;;;;;9.33;9.33;;;;;21.48;47.10;101122.69;5054259;28;45537;-65
2022/08/31 07:27:22;;;;;;;;;9.00;9.00;;;;;21.48;47.30;101123.53;5077937;28;45466;-66
2022/08/31 07:30:15;;;;;;;;;10.67;10.67;;;;;21.52;47.14;101126.81;5027326;28;45455;-64
2022/08/31 07:32:50;;;;;;;;;10.67;10.67;;;;;21.56;47.13;101129.19;5059395;28;46551;-63
2022/08/31 07:35:51;;;;;;;;;9.00;9.00;;;;;21.58;46.92;101129.06;5059747;28;45577;-60
2022/08/31 07:44:57;;;;;;;;;11.00;11.00;;;;;21.65;47.00;101124.97;5078667;28;45561;-66
2022/08/31 07:47:32;;;;;;;;;10.33;10.33;;;;;21.67;46.83;101125.72;5077932;28;45435;-62
2022/08/31 07:50:01;;;;;;;;;10.00;9.33;;;;;21.73;46.88;101127.94;5058444;28;45556;-65
2022/08/31 07:56:06;;;;;;;;;11.67;9.67;;;;;21.80;46.58;101137.22;5052329;27;45926;-66
2022/08/31 07:58:46;;;;;;;;;11.67;11.67;;;;;21.78;46.76;101130.28;5077531;28;45471;-63
2022/08/31 08:08:04;;;;;;;;;9.00;9.00;;;;;21.91;46.51;101120.38;5075818;28;45555;-64
2022/08/31 08:17:26;;;;;;;;;11.33;10.33;;;;;22.02;46.95;101119.56;5076983;28;45538;-65
2022/08/31 08:20:00;;;;;;;;;12.00;12.00;;;;;22.09;46.51;101109.25;5058693;27;45638;-66
2022/08/31 08:22:28;;;;;;;;;11.00;11.00;;;;;22.10;46.57;101111.78;5097347;27;45422;-66
2022/08/31 08:25:05;;;;;;;;;12.00;12.00;;;;;22.11;46.42;101108.16;5079213;27;45608;-66
2022/08/31 08:27:42;;;;;;;;;11.67;11.67;;;;;22.15;46.59;101108.78;5061001;27;45485;-65
2022/08/31 08:30:12;;;;;;;;;10.33;10.33;;;;;22.17;46.36;101113.06;5061753;27;45499;-66
2022/08/31 08:33:03;;;;;;;;;12.00;12.00;;;;;22.19;46.45;101110.28;5097375;27;45500;-65
2022/08/31 08:41:39;;;;;;;;;13.00;12.67;;;;;22.34;46.06;101106.44;5096937;27;45957;-64
2022/08/31 08:44:09;;;;;;;;;11.33;10.33;;;;;22.36;45.86;101115.22;5096910;27;45443;-65
2022/08/31 08:49:54;;;;;;;;;10.00;10.00;;;;;22.39;45.94;101103.41;5096979;27;45363;-64
2022/08/31 08:53:03;;;;;;;;;14.00;13.67;;;;;22.41;46.15;101105.00;5100764;27;45516;-65
2022/08/31 08:56:06;;;;;;;;;14.67;13.67;;;;;22.43;45.97;101100.38;5050889;27;45517;-65
2022/08/31 08:58:51;;;;;;;;;13.67;12.67;;;;;22.48;46.31;101105.34;5057599;27;45594;-66
2022/08/31 09:01:26;;;;;;;;;12.33;10.67;;;;;22.54;46.08;101101.34;5081668;27;45590;-64
2022/08/31 09:04:35;;;;;;;;;13.67;13.67;;;;;22.58;46.17;101097.47;5100202;27;45508;-66
2022/08/31 09:07:43;;;;;;;;;15.33;14.33;;;;;22.61;46.12;101098.06;5063962;27;45537;-65
2022/08/31 09:10:36;;;;;;;;;13.00;13.00;;;;;22.65;46.11;101098.72;5064113;27;45513;-65
2022/08/31 09:14:05;;;;;;;;;13.33;13.33;;;;;22.64;46.06;101092.47;5085436;27;45733;-64
2022/08/31 09:17:15;;;;;;;;;14.33;14.33;;;;;22.70;46.00;101099.16;5063471;27;45658;-63
2022/08/31 09:20:03;;;;;;;;;14.33;13.00;;;;;22.75;45.76;101093.44;5100485;27;45571;-63
2022/08/31 09:23:01;;;;;;;;;12.67;11.67;;;;;22.78;45.82;101091.38;5030470;28;45510;-66
2022/08/31 09:25:53;;;;;;;;;12.33;11.67;;;;;22.82;46.09;101092.00;5007987;28;45513;-64
2022/08/31 09:28:49;;;;;;;;;13.33;13.33;;;;;22.82;45.93;101075.91;5003731;28;45583;-65
2022/08/31 09:35:27;;;;;;;;;13.00;13.00;;;;;22.82;45.71;101078.59;4971536;28;45516;-65
2022/08/31 09:38:25;;;;;;;;;13.33;13.33;;;;;22.85;45.86;101065.78;4949737;28;45911;-64
2022/08/31 09:58:16;;;;;;;;;14.67;11.33;;;;;23.18;45.64;101060.53;5044570;28;45522;-63
2022/08/31 10:04:28;;;;;;;;;13.00;12.67;;;;;23.27;45.65;101049.94;5079329;28;45524;-66
2022/08/31 10:07:20;;;;;;;;;8.33;8.33;;;;;23.33;45.51;101045.88;5078892;28;45491;-63
2022/08/31 10:09:56;;;;;;;;;12.67;12.33;;;;;23.39;45.21;101053.41;5079712;28;45551;-65
2022/08/31 10:13:17;;;;;;;;;12.75;11.50;;;;;23.41;45.28;101046.09;5079516;28;45517;-63
2022/08/31 10:19:57;;;;;;;;;11.67;11.67;;;;;23.57;45.25;101040.31;5046192;28;45525;-65
2022/08/31 10:23:05;;;;;;;;;11.67;11.67;;;;;23.57;45.02;101037.63;5091825;27;45552;-64
2022/08/31 10:25:39;;;;;;;;;12.33;12.00;;;;;23.57;45.20;101032.25;5031263;27;45490;-65
2022/08/31 10:28:55;;;;;;;;;12.00;12.00;;;;;23.63;45.00;101047.00;5099554;27;45482;-62
2022/08/31 10:31:44;;;;;;;;;11.67;11.00;;;;;23.66;44.84;101034.16;5002312;28;46439;-63
2022/08/31 10:38:24;;;;;;;;;12.33;12.33;;;;;23.76;45.08;101032.47;5035775;28;45549;-65
2022/08/31 10:41:31;;;;;;;;;11.00;11.00;;;;;23.83;45.03;101040.00;5019074;28;46538;-63
2022/08/31 10:44:25;;;;;;;;;14.00;12.50;;;;;23.88;44.73;101030.56;5018765;28;46333;-63
2022/08/31 10:46:57;;;;;;;;;14.00;12.00;;;;;23.95;44.68;101034.44;5035888;28;45508;-63
2022/08/31 10:49:44;;;;;;;;;13.00;13.00;;;;;23.99;44.43;101026.97;5090865;27;44808;-65
2022/08/31 10:52:41;;;;;;;;;12.00;10.67;;;;;24.05;44.71;101025.63;5044363;27;45749;-63
2022/08/31 10:56:13;;;;;;;;;10.00;9.25;;;;;24.12;44.18;101024.09;5058917;27;45628;-64
2022/08/31 10:59:17;;;;;;;;;12.00;12.00;;;;;24.18;43.91;101018.16;5098085;27;45481;-63
2022/08/31 11:02:33;;;;;;;;;15.33;13.67;;;;;24.23;43.89;101024.00;5087394;27;45524;-65
2022/08/31 11:05:57;;;;;;;;;13.00;12.67;;;;;24.27;43.73;101019.25;5098253;27;45536;-62
2022/08/31 11:09:08;;;;;;;;;14.75;14.75;;;;;24.32;43.90;101022.38;5061890;27;45468;-63
2022/08/31 11:22:43;;;;;;;;;11.67;11.00;;;;;24.52;43.49;101013.44;5034972;28;45721;-62
2022/08/31 11:29:12;;;;;;;;;10.00;9.00;;;;;24.64;43.62;101011.53;5098803;27;45452;-64
2022/08/31 11:32:24;;;;;;;;;10.00;10.00;;;;;24.68;43.37;101010.25;5062761;27;45568;-63
2022/08/31 11:35:14;;;;;;;;;12.00;12.00;;;;;24.73;43.25;101008.00;5027281;27;45896;-63
2022/08/31 11:38:28;;;;;;;;;14.25;14.00;;;;;24.77;42.78;101008.59;5061978;27;45505;-63
2022/08/31 11:48:12;;;;;;;;;17.00;13.67;;;;;24.92;42.89;100997.31;5098099;27;45431;-63
2022/08/31 11:51:03;;;;;;;;;12.00;11.25;;;;;24.97;42.44;100996.06;5001977;28;45515;-64
2022/08/31 11:53:51;;;;;;;;;11.50;11.50;;;;;25.04;42.38;100984.59;5071067;27;45547;-63
2022/08/31 11:59:57;;;;;;;;;11.00;11.00;;;;;25.26;41.93;100983.53;5083161;27;45511;-65
2022/08/31 12:03:11;;;;;;;;;14.00;12.25;;;;;25.32;41.88;100984.81;5088529;27;45521;-62
2022/08/31 12:06:21;;;;;;;;;13.50;12.75;;;;;25.40;41.81;100986.81;5077552;27;45386;-64
2022/08/31 12:09:29;;;;;;;;;12.00;10.50;;;;;25.48;41.49;100981.56;5079536;27;45407;-62
2022/08/31 12:26:19;;;;;;;;;11.50;11.50;;;;;26.06;39.39;100970.75;5034895;28;45583;-63
2022/08/31 12:29:28;;;;;;;;;10.25;10.25;;;;;26.17;39.37;100973.28;5001401;28;45380;-65
2022/08/31 12:35:22;;;;;;;;;15.00;12.75;;;;;26.31;39.88;100965.72;5034886;28;45727;-64
2022/08/31 12:41:13;;;;;;;;;12.50;12.50;;;;;26.31;39.18;100963.84;5053057;27;45545;-63
2022/08/31 12:54:15;;;;;;;;;12.75;12.75;;;;;26.56;38.57;100967.75;5097445;27;45576;-65
2022/08/31 12:57:25;;;;;;;;;10.75;10.75;;;;;26.71;38.50;100957.31;5098041;27;45493;-63
2022/08/31 13:00:42;;;;;;;;;11.75;11.75;;;;;26.99;37.98;100962.69;5062039;27;45566;-65
2022/08/31 13:06:55;;;;;;;;;9.50;8.75;;;;;27.19;37.90;100952.63;5085280;27;45580;-62
2022/08/31 13:13:14;;;;;;;;;12.00;11.50;;;;;27.39;37.57;100948.78;5096158;27;45623;-62
2022/08/31 13:16:18;;;;;;;;;10.00;10.00;;;;;27.60;37.70;100947.59;5092981;27;46461;-63
2022/08/31 13:18:49;;;;;;;;;15.00;15.00;;;;;27.67;36.88;100946.81;5082078;27;45487;-65
2022/08/31 13:32:01;;;;;;;;;12.00;12.00;;;;;27.55;36.81;100939.97;5062372;28;44951;-64
2022/08/31 13:35:02;;;;;;;;;11.50;11.25;;;;;27.74;36.33;100936.22;5040680;27;45599;-65
2022/08/31 13:38:12;;;;;;;;;9.75;9.75;;;;;27.96;36.51;100945.69;5008374;28;45516;-66
2022/08/31 13:41:12;;;;;;;;;12.75;10.25;;;;;28.02;35.76;100947.75;5030898;28;45546;-62
2022/08/31 13:47:20;;;;;;;;;12.00;12.00;;;;;27.72;35.79;100939.06;5051816;28;46289;-66
2022/08/31 13:50:16;;;;;;;;;17.50;14.00;;;;;27.94;35.65;100943.16;5069229;28;45591;-64
2022/08/31 13:53:21;;;;;;;;;13.00;11.50;;;;;28.11;34.76;100940.56;5079947;28;46725;-64
2022/08/31 13:55:55;;;;;;;;;15.00;14.00;;;;;28.31;33.93;100936.59;5077729;28;45590;-65
2022/08/31 13:59:08;;;;;;;;;12.75;12.00;;;;;28.46;33.70;100931.47;5079822;28;45476;-65
2022/08/31 14:01:44;;;;;;;;;14.25;14.00;;;;;28.62;33.78;100934.22;5037588;28;45427;-63
2022/08/31 14:08:14;;;;;;;;;12.75;12.75;;;;;28.90;33.65;100933.13;5080061;28;45481;-65
2022/08/31 14:10:59;;;;;;;;;13.00;12.00;;;;;29.06;33.80;100933.19;5078167;28;45533;-65
2022/08/31 14:13:35;;;;;;;;;14.25;11.25;;;;;29.13;34.19;100934.22;5067487;27;45637;-65
2022/08/31 14:16:21;;;;;;;;;11.00;11.00;;;;;29.11;34.02;100933.53;5080070;28;45970;-63
2022/08/31 14:25:45;;;;;;;;;12.00;11.00;;;;;29.07;33.62;100921.34;5080480;28;45438;-66
2022/08/31 14:31:58;;;;;;;;;12.50;12.50;;;;;28.64;33.34;100904.31;5079856;28;45609;-65
2022/08/31 14:34:32;;;;;;;;;14.25;13.25;;;;;28.44;33.00;100890.19;5026557;28;45527;-66
2022/08/31 14:40:45;;;;;;;;;16.00;14.25;;;;;28.31;34.47;100887.06;5079127;28;45452;-65
2022/08/31 14:43:41;;;;;;;;;13.50;13.50;;;;;28.23;34.82;100876.19;5043326;28;45644;-66
2022/08/31 14:46:51;;;;;;;;;10.75;10.75;;;;;28.09;34.93;100886.63;5012188;28;45565;-66
2022/08/31 14:49:44;;;;;;;;;10.25;10.25;;;;;27.95;34.71;100876.41;4960061;28;45472;-65
2022/08/31 14:52:27;;;;;;;;;15.00;15.00;;;;;27.81;35.47;100877.88;4977260;28;45472;-64
2022/08/31 15:01:19;;;;;;;;;10.50;9.50;;;;;27.56;35.88;100881.34;5036301;28;45488;-63
2022/08/31 15:04:23;;;;;;;;;14.00;14.00;;;;;27.49;35.58;100875.75;5068975;28;45561;-66
2022/08/31 15:17:34;;;;;;;;;10.25;10.25;;;;;27.41;35.44;100856.78;5078020;28;45871;-63
2022/08/31 15:20:20;;;;;;;;;11.00;11.00;;;;;27.41;36.07;100857.63;5078242;28;45621;-66
2022/08/31 15:23:10;;;;;;;;;12.25;12.00;;;;;27.40;35.85;100852.38;5068884;27;45522;-65
2022/08/31 15:26:08;;;;;;;;;12.00;12.00;;;;;27.41;36.08;100836.00;5078695;28;45487;-64
2022/08/31 15:29:13;;;;;;;;;14.50;13.75;;;;;27.39;35.95;100850.69;4982661;28;45618;-65
2022/08/31 15:32:30;;;;;;;;;12.75;11.75;;;;;27.34;35.67;100844.91;5063388;28;45431;-66
2022/08/31 15:45:19;;;;;;;;;12.75;12.75;;;;;27.09;36.91;100850.91;5078054;28;45542;-64
2022/08/31 15:51:09;;;;;;;;;15.00;15.00;;;;;26.97;36.47;100845.91;5066234;28;45557;-64
2022/08/31 15:59:46;;;;;;;;;14.75;14.00;;;;;26.86;36.65;100844.28;5008441;28;45564;-66
2022/08/31 16:02:36;;;;;;;;;12.25;12.25;;;;;26.85;36.16;100845.31;5078089;28;45399;-64
2022/08/31 16:08:56;;;;;;;;;15.00;14.00;;;;;26.81;36.87;100844.78;5048053;28;45479;-64
2022/08/31 16:11:48;;;;;;;;;15.50;13.75;;;;;26.84;36.75;100835.50;5025603;28;45614;-66
2022/08/31 16:14:45;;;;;;;;;11.00;11.00;;;;;26.81;36.40;100841.19;5022435;28;45456;-66
2022/08/31 16:24:39;;;;;;;;;15.50;13.00;;;;;26.76;35.95;100832.72;5057043;27;45555;-64
2022/08/31 16:27:36;;;;;;;;;9.25;9.25;;;;;26.77;36.08;100832.56;5078924;27;45414;-65
2022/08/31 16:30:13;;;;;;;;;12.25;11.25;;;;;26.76;35.78;100827.31;5027810;27;45594;-64
2022/08/31 16:33:14;;;;;;;;;13.25;13.25;;;;;26.71;35.79;100825.09;5079313;27;45438;-63
2022/08/31 16:39:52;;;;;;;;;13.25;12.00;;;;;26.62;36.33;100829.53;5096309;27;45396;-65
2022/08/31 16:42:55;;;;;;;;;12.50;12.50;;;;;26.60;35.81;100833.44;5098126;27;45471;-65
2022/08/31 16:49:42;;;;;;;;;12.00;12.00;;;;;26.55;36.25;100830.34;5092244;27;45385;-65
2022/08/31 16:52:20;;;;;;;;;10.50;10.50;;;;;26.52;36.60;100826.09;5032867;27;45440;-64
2022/08/31 16:54:49;;;;;;;;;15.75;14.00;;;;;26.50;37.11;100827.22;5098161;27;45464;-63
2022/08/31 16:57:33;;;;;;;;;13.00;12.00;;;;;26.47;36.63;100827.50;5098113;27;45457;-64
2022/08/31 17:00:03;;;;;;;;;13.25;11.75;;;;;26.45;37.46;100833.88;5090031;27;45515;-66
2022/08/31 17:02:29;;;;;;;;;15.25;12.75;;;;;26.42;37.04;100826.09;5097833;27;45509;-63
2022/08/31 17:04:59;;;;;;;;;14.50;14.50;;;;;26.43;37.26;100825.09;5097253;27;46285;-65
2022/08/31 17:07:36;;;;;;;;;15.75;15.50;;;;;26.44;37.32;100817.88;5079226;27;45553;-64
2022/08/31 17:10:19;;;;;;;;;12.50;12.50;;;;;26.43;37.33;100822.41;5065788;27;45486;-64
2022/08/31 17:13:42;;;;;;;;;13.75;12.75;;;;;26.44;37.34;100818.72;5100414;27;45575;-64
